sensor_id;sensor_type;location;lat;lon;timestamp;pressure;altitude;pressure_sealevel;temperature;humidity
62789;BME280;66401;42.016;21.454;2023-02-19T00:01:38;98779.34;;;8.27;52.28
62789;BME280;66401;42.016;21.454;2023-02-19T00:04:12;98789.91;;;8.26;52.19
62789;BME280;66401;42.016;21.454;2023-02-19T00:06:38;98784.72;;;8.18;52.87
62789;BME280;66401;42.016;21.454;2023-02-19T00:09:04;98781.97;;;8.03;53.21
62789;BME280;66401;42.016;21.454;2023-02-19T00:11:32;98785.84;;;7.99;52.84
62789;BME280;66401;42.016;21.454;2023-02-19T00:13:59;98786.84;;;7.90;53.66
62789;BME280;66401;42.016;21.454;2023-02-19T00:16:30;98779.06;;;7.98;52.81
62789;BME280;66401;42.016;21.454;2023-02-19T00:18:57;98776.78;;;8.03;52.74
62789;BME280;66401;42.016;21.454;2023-02-19T00:21:23;98770.28;;;7.91;53.23
62789;BME280;66401;42.016;21.454;2023-02-19T00:23:54;98770.31;;;7.83;53.54
62789;BME280;66401;42.016;21.454;2023-02-19T00:26:20;98768.84;;;7.96;52.19
62789;BME280;66401;42.016;21.454;2023-02-19T00:28:47;98764.97;;;7.84;52.75
62789;BME280;66401;42.016;21.454;2023-02-19T00:31:20;98771.59;;;7.87;53.57
62789;BME280;66401;42.016;21.454;2023-02-19T00:33:46;98765.44;;;7.96;53.55
62789;BME280;66401;42.016;21.454;2023-02-19T00:36:13;98769.00;;;7.95;52.03
62789;BME280;66401;42.016;21.454;2023-02-19T00:38:40;98767.06;;;7.81;53.14
62789;BME280;66401;42.016;21.454;2023-02-19T00:41:06;98767.06;;;7.89;52.72
62789;BME280;66401;42.016;21.454;2023-02-19T00:46:10;98762.38;;;7.84;53.05
62789;BME280;66401;42.016;21.454;2023-02-19T00:48:36;98770.16;;;7.92;52.57
62789;BME280;66401;42.016;21.454;2023-02-19T00:51:01;98763.50;;;7.82;53.19
62789;BME280;66401;42.016;21.454;2023-02-19T00:53:27;98763.50;;;7.73;53.62
62789;BME280;66401;42.016;21.454;2023-02-19T00:55:52;98760.91;;;7.73;53.99
62789;BME280;66401;42.016;21.454;2023-02-19T00:58:17;98748.59;;;7.84;53.15
62789;BME280;66401;42.016;21.454;2023-02-19T01:00:43;98745.66;;;7.70;54.04
62789;BME280;66401;42.016;21.454;2023-02-19T01:03:08;98757.34;;;7.66;53.70
62789;BME280;66401;42.016;21.454;2023-02-19T01:05:34;98746.50;;;7.63;53.09
62789;BME280;66401;42.016;21.454;2023-02-19T01:07:59;98752.78;;;7.60;53.71
62789;BME280;66401;42.016;21.454;2023-02-19T01:10:25;98730.56;;;7.50;54.12
62789;BME280;66401;42.016;21.454;2023-02-19T01:12:50;98735.63;;;7.67;53.18
62789;BME280;66401;42.016;21.454;2023-02-19T01:15:16;98734.63;;;7.60;53.62
62789;BME280;66401;42.016;21.454;2023-02-19T01:17:41;98737.38;;;7.59;54.07
62789;BME280;66401;42.016;21.454;2023-02-19T01:20:07;98737.88;;;7.62;53.12
62789;BME280;66401;42.016;21.454;2023-02-19T01:22:33;98733.84;;;7.68;53.59
62789;BME280;66401;42.016;21.454;2023-02-19T01:24:58;98733.53;;;7.63;53.67
62789;BME280;66401;42.016;21.454;2023-02-19T01:27:24;98721.50;;;7.45;53.21
62789;BME280;66401;42.016;21.454;2023-02-19T01:29:49;98704.13;;;7.22;53.89
62789;BME280;66401;42.016;21.454;2023-02-19T01:32:15;98719.09;;;7.44;53.96
62789;BME280;66401;42.016;21.454;2023-02-19T01:34:41;98730.88;;;7.38;53.77
62789;BME280;66401;42.016;21.454;2023-02-19T01:37:06;98730.41;;;7.35;53.96
62789;BME280;66401;42.016;21.454;2023-02-19T01:39:36;98720.69;;;7.45;53.37
62789;BME280;66401;42.016;21.454;2023-02-19T01:42:03;98737.84;;;7.38;53.77
62789;BME280;66401;42.016;21.454;2023-02-19T01:46:55;98734.59;;;7.28;53.85
62789;BME280;66401;42.016;21.454;2023-02-19T01:49:30;98738.16;;;7.27;54.68
62789;BME280;66401;42.016;21.454;2023-02-19T01:51:59;98734.56;;;7.20;54.35
62789;BME280;66401;42.016;21.454;2023-02-19T01:54:30;98735.06;;;7.15;54.39
62789;BME280;66401;42.016;21.454;2023-02-19T01:56:58;98736.84;;;7.23;54.06
62789;BME280;66401;42.016;21.454;2023-02-19T01:59:24;98736.88;;;7.31;54.11
62789;BME280;66401;42.016;21.454;2023-02-19T02:01:50;98733.44;;;7.22;53.92
62789;BME280;66401;42.016;21.454;2023-02-19T02:04:16;98744.63;;;7.31;53.28
62789;BME280;66401;42.016;21.454;2023-02-19T02:06:48;98751.44;;;7.32;53.19
62789;BME280;66401;42.016;21.454;2023-02-19T02:09:15;98738.97;;;7.27;54.17
62789;BME280;66401;42.016;21.454;2023-02-19T02:12:01;98731.66;;;7.14;55.12
62789;BME280;66401;42.016;21.454;2023-02-19T02:14:30;98729.69;;;7.08;54.88
62789;BME280;66401;42.016;21.454;2023-02-19T02:17:25;98737.13;;;7.03;55.06
62789;BME280;66401;42.016;21.454;2023-02-19T02:30:53;98761.38;;;6.94;54.84
62789;BME280;66401;42.016;21.454;2023-02-19T02:33:57;98758.59;;;6.87;55.13
62789;BME280;66401;42.016;21.454;2023-02-19T02:36:39;98773.25;;;6.71;55.54
62789;BME280;66401;42.016;21.454;2023-02-19T02:39:10;98782.13;;;6.68;54.73
62789;BME280;66401;42.016;21.454;2023-02-19T02:41:45;98777.19;;;6.83;54.35
62789;BME280;66401;42.016;21.454;2023-02-19T02:44:13;98773.94;;;6.81;54.70
62789;BME280;66401;42.016;21.454;2023-02-19T02:46:43;98762.69;;;6.64;55.08
62789;BME280;66401;42.016;21.454;2023-02-19T02:49:20;98793.88;;;6.88;55.34
62789;BME280;66401;42.016;21.454;2023-02-19T02:51:50;98802.59;;;6.79;55.10
62789;BME280;66401;42.016;21.454;2023-02-19T02:54:23;98809.06;;;6.83;54.86
62789;BME280;66401;42.016;21.454;2023-02-19T02:57:10;98808.25;;;6.83;54.11
62789;BME280;66401;42.016;21.454;2023-02-19T02:59:40;98806.75;;;6.72;55.18
62789;BME280;66401;42.016;21.454;2023-02-19T03:02:12;98804.31;;;6.71;55.25
62789;BME280;66401;42.016;21.454;2023-02-19T03:04:53;98809.13;;;6.66;54.74
62789;BME280;66401;42.016;21.454;2023-02-19T03:10:45;98808.78;;;6.60;55.22
62789;BME280;66401;42.016;21.454;2023-02-19T03:13:17;98817.38;;;6.61;54.99
62789;BME280;66401;42.016;21.454;2023-02-19T03:16:18;98814.00;;;6.69;55.60
62789;BME280;66401;42.016;21.454;2023-02-19T03:19:04;98817.09;;;6.46;55.14
62789;BME280;66401;42.016;21.454;2023-02-19T03:22:05;98818.06;;;6.45;55.86
62789;BME280;66401;42.016;21.454;2023-02-19T03:24:51;98829.44;;;6.52;56.52
62789;BME280;66401;42.016;21.454;2023-02-19T03:27:38;98834.97;;;6.57;55.15
62789;BME280;66401;42.016;21.454;2023-02-19T03:30:09;98834.16;;;6.57;55.18
62789;BME280;66401;42.016;21.454;2023-02-19T03:32:38;98814.09;;;6.33;54.96
62789;BME280;66401;42.016;21.454;2023-02-19T03:35:20;98845.28;;;6.49;55.59
62789;BME280;66401;42.016;21.454;2023-02-19T03:38:02;98835.47;;;6.35;55.53
62789;BME280;66401;42.016;21.454;2023-02-19T03:40:30;98838.59;;;6.21;56.33
62789;BME280;66401;42.016;21.454;2023-02-19T03:43:36;98841.34;;;6.19;56.60
62789;BME280;66401;42.016;21.454;2023-02-19T03:46:20;98810.56;;;5.90;57.29
62789;BME280;66401;42.016;21.454;2023-02-19T03:48:55;98831.66;;;6.03;57.06
62789;BME280;66401;42.016;21.454;2023-02-19T03:51:33;98832.69;;;6.11;56.81
62789;BME280;66401;42.016;21.454;2023-02-19T03:54:19;98813.94;;;6.09;56.02
62789;BME280;66401;42.016;21.454;2023-02-19T03:57:01;98822.13;;;6.04;57.09
62789;BME280;66401;42.016;21.454;2023-02-19T04:02:05;98849.25;;;6.18;56.52
62789;BME280;66401;42.016;21.454;2023-02-19T04:04:38;98843.03;;;6.11;56.10
62789;BME280;66401;42.016;21.454;2023-02-19T04:07:06;98846.19;;;6.22;56.47
62789;BME280;66401;42.016;21.454;2023-02-19T04:09:36;98850.72;;;6.02;57.26
62789;BME280;66401;42.016;21.454;2023-02-19T04:12:05;98853.97;;;6.05;57.32
62789;BME280;66401;42.016;21.454;2023-02-19T04:14:53;98818.56;;;6.05;56.37
62789;BME280;66401;42.016;21.454;2023-02-19T04:17:32;98826.91;;;6.17;56.94
62789;BME280;66401;42.016;21.454;2023-02-19T04:20:02;98841.41;;;6.10;56.98
62789;BME280;66401;42.016;21.454;2023-02-19T04:22:31;98849.19;;;6.10;56.11
62789;BME280;66401;42.016;21.454;2023-02-19T04:24:57;98850.72;;;6.02;57.59
62789;BME280;66401;42.016;21.454;2023-02-19T04:27:23;98849.53;;;5.97;58.10
62789;BME280;66401;42.016;21.454;2023-02-19T04:29:48;98851.72;;;5.74;58.72
62789;BME280;66401;42.016;21.454;2023-02-19T04:32:14;98849.34;;;5.63;58.29
62789;BME280;66401;42.016;21.454;2023-02-19T04:34:39;98848.28;;;5.56;58.35
62789;BME280;66401;42.016;21.454;2023-02-19T04:37:05;98849.28;;;5.72;57.48
62789;BME280;66401;42.016;21.454;2023-02-19T04:39:31;98837.47;;;5.70;57.43
62789;BME280;66401;42.016;21.454;2023-02-19T04:41:57;98849.53;;;5.79;57.06
62789;BME280;66401;42.016;21.454;2023-02-19T04:44:23;98846.94;;;5.79;56.72
62789;BME280;66401;42.016;21.454;2023-02-19T04:46:48;98850.19;;;5.81;57.02
62789;BME280;66401;42.016;21.454;2023-02-19T04:49:14;98845.38;;;5.86;56.68
62789;BME280;66401;42.016;21.454;2023-02-19T04:51:40;98838.88;;;5.82;57.36
62789;BME280;66401;42.016;21.454;2023-02-19T04:54:06;98848.41;;;5.82;56.06
62789;BME280;66401;42.016;21.454;2023-02-19T04:56:31;98853.03;;;5.78;57.57
62789;BME280;66401;42.016;21.454;2023-02-19T04:58:57;98849.59;;;5.69;55.82
62789;BME280;66401;42.016;21.454;2023-02-19T05:01:23;98852.59;;;5.65;57.36
62789;BME280;66401;42.016;21.454;2023-02-19T05:03:49;98856.22;;;5.72;56.50
62789;BME280;66401;42.016;21.454;2023-02-19T05:06:14;98855.31;;;5.63;57.03
62789;BME280;66401;42.016;21.454;2023-02-19T05:08:40;98864.25;;;5.69;56.53
62789;BME280;66401;42.016;21.454;2023-02-19T05:11:07;98860.44;;;5.73;56.69
62789;BME280;66401;42.016;21.454;2023-02-19T05:13:35;98867.59;;;5.61;57.46
62789;BME280;66401;42.016;21.454;2023-02-19T05:16:10;98861.22;;;5.56;57.38
62789;BME280;66401;42.016;21.454;2023-02-19T05:18:41;98867.03;;;5.58;56.80
62789;BME280;66401;42.016;21.454;2023-02-19T05:21:07;98875.19;;;5.63;56.48
62789;BME280;66401;42.016;21.454;2023-02-19T05:23:32;98864.31;;;5.41;58.80
62789;BME280;66401;42.016;21.454;2023-02-19T05:25:58;98874.44;;;5.53;58.30
62789;BME280;66401;42.016;21.454;2023-02-19T05:28:23;98876.91;;;5.44;58.49
62789;BME280;66401;42.016;21.454;2023-02-19T05:30:54;98881.88;;;5.56;56.89
62789;BME280;66401;42.016;21.454;2023-02-19T05:33:21;98878.19;;;5.58;57.82
62789;BME280;66401;42.016;21.454;2023-02-19T05:35:52;98876.06;;;5.54;57.11
62789;BME280;66401;42.016;21.454;2023-02-19T05:38:18;98889.06;;;5.62;57.60
62789;BME280;66401;42.016;21.454;2023-02-19T05:40:44;98890.44;;;5.56;57.76
62789;BME280;66401;42.016;21.454;2023-02-19T05:43:11;98892.88;;;5.58;57.76
62789;BME280;66401;42.016;21.454;2023-02-19T05:45:38;98891.72;;;5.52;57.63
62789;BME280;66401;42.016;21.454;2023-02-19T05:48:05;98897.38;;;5.56;58.29
62789;BME280;66401;42.016;21.454;2023-02-19T05:50:34;98904.34;;;5.55;57.24
62789;BME280;66401;42.016;21.454;2023-02-19T05:53:01;98898.09;;;5.48;56.64
62789;BME280;66401;42.016;21.454;2023-02-19T05:55:27;98891.34;;;5.37;58.53
62789;BME280;66401;42.016;21.454;2023-02-19T05:57:53;98894.34;;;5.42;57.62
62789;BME280;66401;42.016;21.454;2023-02-19T06:00:19;98903.81;;;5.52;57.97
62789;BME280;66401;42.016;21.454;2023-02-19T06:02:45;98901.22;;;5.52;57.93
62789;BME280;66401;42.016;21.454;2023-02-19T06:05:11;98896.47;;;5.47;58.94
62789;BME280;66401;42.016;21.454;2023-02-19T06:07:37;98892.56;;;5.43;58.13
62789;BME280;66401;42.016;21.454;2023-02-19T06:10:10;98899.31;;;5.54;57.84
62789;BME280;66401;42.016;21.454;2023-02-19T06:12:37;98904.63;;;5.52;57.91
62789;BME280;66401;42.016;21.454;2023-02-19T06:15:04;98885.22;;;5.66;58.19
62789;BME280;66401;42.016;21.454;2023-02-19T06:17:30;98904.47;;;5.81;58.61
62789;BME280;66401;42.016;21.454;2023-02-19T06:19:56;98901.28;;;5.87;58.51
62789;BME280;66401;42.016;21.454;2023-02-19T06:22:21;98904.44;;;5.91;58.26
62789;BME280;66401;42.016;21.454;2023-02-19T06:24:47;98902.06;;;5.97;58.17
62789;BME280;66401;42.016;21.454;2023-02-19T06:27:12;98908.44;;;6.03;57.73
62789;BME280;66401;42.016;21.454;2023-02-19T06:29:38;98906.28;;;5.98;58.10
62789;BME280;66401;42.016;21.454;2023-02-19T06:32:05;98902.25;;;5.86;58.65
62789;BME280;66401;42.016;21.454;2023-02-19T06:34:31;98903.00;;;5.96;57.71
62789;BME280;66401;42.016;21.454;2023-02-19T06:36:57;98892.69;;;5.96;58.09
62789;BME280;66401;42.016;21.454;2023-02-19T06:39:22;98901.97;;;5.89;59.31
62789;BME280;66401;42.016;21.454;2023-02-19T06:41:48;98905.34;;;5.72;57.94
62789;BME280;66401;42.016;21.454;2023-02-19T06:44:13;98894.03;;;5.73;59.00
62789;BME280;66401;42.016;21.454;2023-02-19T06:46:39;98894.59;;;5.94;57.69
62789;BME280;66401;42.016;21.454;2023-02-19T06:49:05;98890.09;;;5.96;58.42
62789;BME280;66401;42.016;21.454;2023-02-19T06:51:31;98896.22;;;6.31;57.88
62789;BME280;66401;42.016;21.454;2023-02-19T06:53:58;98894.22;;;6.43;57.07
62789;BME280;66401;42.016;21.454;2023-02-19T06:56:32;98897.09;;;6.57;56.80
62789;BME280;66401;42.016;21.454;2023-02-19T06:59:00;98899.13;;;6.72;57.09
62789;BME280;66401;42.016;21.454;2023-02-19T07:01:29;98900.97;;;6.79;55.98
62789;BME280;66401;42.016;21.454;2023-02-19T07:03:55;98898.47;;;6.96;55.88
62789;BME280;66401;42.016;21.454;2023-02-19T07:06:23;98879.84;;;6.92;55.70
62789;BME280;66401;42.016;21.454;2023-02-19T07:08:49;98893.53;;;7.10;55.17
62789;BME280;66401;42.016;21.454;2023-02-19T07:11:15;98898.41;;;7.13;55.01
62789;BME280;66401;42.016;21.454;2023-02-19T07:13:41;98894.56;;;7.17;55.04
62789;BME280;66401;42.016;21.454;2023-02-19T07:16:08;98894.66;;;7.08;55.76
62789;BME280;66401;42.016;21.454;2023-02-19T07:18:34;98893.75;;;6.91;55.07
62789;BME280;66401;42.016;21.454;2023-02-19T07:21:03;98899.75;;;6.92;55.32
62789;BME280;66401;42.016;21.454;2023-02-19T07:23:29;98893.41;;;6.86;56.09
62789;BME280;66401;42.016;21.454;2023-02-19T07:25:55;98892.63;;;6.94;56.18
62789;BME280;66401;42.016;21.454;2023-02-19T07:28:20;98901.56;;;6.99;56.68
62789;BME280;66401;42.016;21.454;2023-02-19T07:30:46;98899.03;;;7.07;56.14
62789;BME280;66401;42.016;21.454;2023-02-19T07:33:11;98905.94;;;6.99;56.98
62789;BME280;66401;42.016;21.454;2023-02-19T07:35:37;98899.91;;;6.90;57.65
62789;BME280;66401;42.016;21.454;2023-02-19T07:38:02;98891.00;;;6.93;56.87
62789;BME280;66401;42.016;21.454;2023-02-19T07:40:28;98904.16;;;6.99;56.85
62789;BME280;66401;42.016;21.454;2023-02-19T07:42:53;98895.84;;;7.22;56.45
62789;BME280;66401;42.016;21.454;2023-02-19T07:45:19;98904.09;;;7.59;55.91
62789;BME280;66401;42.016;21.454;2023-02-19T07:47:44;98899.25;;;8.39;53.09
62789;BME280;66401;42.016;21.454;2023-02-19T07:50:10;98895.84;;;9.35;49.74
62789;BME280;66401;42.016;21.454;2023-02-19T07:52:35;98901.84;;;10.51;47.04
62789;BME280;66401;42.016;21.454;2023-02-19T07:55:01;98899.97;;;11.12;46.26
62789;BME280;66401;42.016;21.454;2023-02-19T07:57:27;98892.53;;;12.11;42.85
62789;BME280;66401;42.016;21.454;2023-02-19T07:59:53;98901.00;;;12.35;42.63
62789;BME280;66401;42.016;21.454;2023-02-19T08:02:19;98900.22;;;12.90;40.33
62789;BME280;66401;42.016;21.454;2023-02-19T08:05:05;98898.94;;;12.79;41.20
62789;BME280;66401;42.016;21.454;2023-02-19T08:07:34;98895.47;;;13.76;38.99
62789;BME280;66401;42.016;21.454;2023-02-19T08:10:01;98892.00;;;14.56;37.20
62789;BME280;66401;42.016;21.454;2023-02-19T08:12:57;98878.66;;;14.91;37.34
62789;BME280;66401;42.016;21.454;2023-02-19T08:15:41;98891.09;;;15.29;36.25
62789;BME280;66401;42.016;21.454;2023-02-19T08:18:08;98883.19;;;15.93;34.80
62789;BME280;66401;42.016;21.454;2023-02-19T08:20:34;98870.41;;;16.78;33.47
62789;BME280;66401;42.016;21.454;2023-02-19T08:22:59;98874.63;;;17.04;32.76
62789;BME280;66401;42.016;21.454;2023-02-19T08:25:25;98869.06;;;17.97;31.13
62789;BME280;66401;42.016;21.454;2023-02-19T08:27:50;98873.81;;;17.59;31.81
62789;BME280;66401;42.016;21.454;2023-02-19T08:30:16;98876.91;;;17.37;32.90
62789;BME280;66401;42.016;21.454;2023-02-19T08:32:43;98881.44;;;17.30;32.94
62789;BME280;66401;42.016;21.454;2023-02-19T08:35:08;98873.22;;;19.05;29.88
62789;BME280;66401;42.016;21.454;2023-02-19T08:37:34;98871.38;;;20.15;29.03
62789;BME280;66401;42.016;21.454;2023-02-19T08:39:59;98867.88;;;20.43;27.68
62789;BME280;66401;42.016;21.454;2023-02-19T08:42:25;98870.31;;;21.38;26.59
62789;BME280;66401;42.016;21.454;2023-02-19T08:44:52;98865.56;;;21.02;27.11
62789;BME280;66401;42.016;21.454;2023-02-19T08:47:17;98851.53;;;21.01;26.34
62789;BME280;66401;42.016;21.454;2023-02-19T08:49:43;98848.19;;;21.77;26.64
62789;BME280;66401;42.016;21.454;2023-02-19T08:52:08;98840.38;;;21.21;25.87
62789;BME280;66401;42.016;21.454;2023-02-19T08:54:34;98843.16;;;20.88;27.45
62789;BME280;66401;42.016;21.454;2023-02-19T08:56:59;98835.94;;;22.24;25.60
62789;BME280;66401;42.016;21.454;2023-02-19T08:59:27;98825.50;;;21.15;26.72
62789;BME280;66401;42.016;21.454;2023-02-19T09:01:53;98824.91;;;20.91;26.93
62789;BME280;66401;42.016;21.454;2023-02-19T09:04:18;98818.75;;;20.47;28.25
62789;BME280;66401;42.016;21.454;2023-02-19T09:06:44;98817.50;;;19.19;30.04
62789;BME280;66401;42.016;21.454;2023-02-19T09:09:10;98815.41;;;20.06;29.07
62789;BME280;66401;42.016;21.454;2023-02-19T09:11:38;98806.28;;;19.97;28.99
62789;BME280;66401;42.016;21.454;2023-02-19T09:14:03;98809.03;;;20.91;27.89
62789;BME280;66401;42.016;21.454;2023-02-19T09:16:35;98813.97;;;21.75;26.53
62789;BME280;66401;42.016;21.454;2023-02-19T09:19:01;98807.03;;;22.70;25.23
62789;BME280;66401;42.016;21.454;2023-02-19T09:21:27;98805.88;;;24.47;22.86
62789;BME280;66401;42.016;21.454;2023-02-19T09:23:52;98794.19;;;24.08;23.59
62789;BME280;66401;42.016;21.454;2023-02-19T09:26:18;98794.97;;;23.88;23.09
62789;BME280;66401;42.016;21.454;2023-02-19T09:28:43;98791.00;;;24.31;22.66
62789;BME280;66401;42.016;21.454;2023-02-19T09:31:13;98781.66;;;25.78;21.25
62789;BME280;66401;42.016;21.454;2023-02-19T09:33:43;98793.88;;;26.13;21.68
62789;BME280;66401;42.016;21.454;2023-02-19T09:36:10;98791.47;;;26.75;20.93
62789;BME280;66401;42.016;21.454;2023-02-19T09:38:36;98780.81;;;26.12;21.49
62789;BME280;66401;42.016;21.454;2023-02-19T09:41:38;98775.09;;;27.00;20.31
62789;BME280;66401;42.016;21.454;2023-02-19T09:44:11;98782.34;;;27.43;19.89
62789;BME280;66401;42.016;21.454;2023-02-19T09:46:49;98781.28;;;26.77;20.89
62789;BME280;66401;42.016;21.454;2023-02-19T09:51:55;98762.13;;;28.20;19.29
62789;BME280;66401;42.016;21.454;2023-02-19T09:54:25;98764.84;;;29.17;18.18
62789;BME280;66401;42.016;21.454;2023-02-19T09:56:56;98763.47;;;27.34;19.37
62789;BME280;66401;42.016;21.454;2023-02-19T09:59:26;98754.81;;;25.93;20.40
62789;BME280;66401;42.016;21.454;2023-02-19T10:02:18;98758.63;;;27.74;19.44
62789;BME280;66401;42.016;21.454;2023-02-19T10:04:45;98750.28;;;27.75;19.95
62789;BME280;66401;42.016;21.454;2023-02-19T10:07:17;98740.63;;;28.80;18.14
62789;BME280;66401;42.016;21.454;2023-02-19T10:09:45;98739.16;;;28.61;17.95
62789;BME280;66401;42.016;21.454;2023-02-19T10:12:18;98740.38;;;28.96;17.88
62789;BME280;66401;42.016;21.454;2023-02-19T10:14:50;98732.69;;;28.34;18.67
62789;BME280;66401;42.016;21.454;2023-02-19T10:17:30;98726.22;;;29.40;17.30
62789;BME280;66401;42.016;21.454;2023-02-19T10:19:59;98720.28;;;30.19;17.29
62789;BME280;66401;42.016;21.454;2023-02-19T10:22:27;98695.06;;;28.80;18.00
62789;BME280;66401;42.016;21.454;2023-02-19T10:24:54;98702.38;;;30.45;17.99
62789;BME280;66401;42.016;21.454;2023-02-19T10:27:20;98699.56;;;29.88;17.25
62789;BME280;66401;42.016;21.454;2023-02-19T10:29:47;98691.09;;;28.09;18.68
62789;BME280;66401;42.016;21.454;2023-02-19T10:32:19;98682.28;;;26.44;19.71
62789;BME280;66401;42.016;21.454;2023-02-19T10:35:12;98691.13;;;27.77;20.16
62789;BME280;66401;42.016;21.454;2023-02-19T10:37:56;98679.78;;;27.66;19.98
62789;BME280;66401;42.016;21.454;2023-02-19T10:40:25;98674.47;;;29.62;18.89
62789;BME280;66401;42.016;21.454;2023-02-19T10:43:02;98674.19;;;29.72;17.42
62789;BME280;66401;42.016;21.454;2023-02-19T10:45:34;98671.66;;;27.20;19.23
62789;BME280;66401;42.016;21.454;2023-02-19T10:48:03;98656.91;;;26.18;21.54
62789;BME280;66401;42.016;21.454;2023-02-19T10:50:31;98658.53;;;25.22;23.19
62789;BME280;66401;42.016;21.454;2023-02-19T10:52:59;98654.94;;;26.90;19.85
62789;BME280;66401;42.016;21.454;2023-02-19T10:55:32;98649.78;;;26.32;20.44
62789;BME280;66401;42.016;21.454;2023-02-19T10:58:25;98639.09;;;29.15;19.71
62789;BME280;66401;42.016;21.454;2023-02-19T11:03:34;98624.88;;;26.18;20.64
62789;BME280;66401;42.016;21.454;2023-02-19T11:06:01;98619.94;;;27.10;21.84
62789;BME280;66401;42.016;21.454;2023-02-19T11:08:28;98605.44;;;29.09;20.55
62789;BME280;66401;42.016;21.454;2023-02-19T11:10:54;98597.66;;;28.21;19.25
62789;BME280;66401;42.016;21.454;2023-02-19T11:13:30;98591.91;;;28.78;19.55
62789;BME280;66401;42.016;21.454;2023-02-19T11:15:57;98585.06;;;28.36;19.39
62789;BME280;66401;42.016;21.454;2023-02-19T11:18:27;98573.72;;;29.56;17.94
62789;BME280;66401;42.016;21.454;2023-02-19T11:20:56;98574.19;;;29.98;17.87
62789;BME280;66401;42.016;21.454;2023-02-19T11:23:44;98566.47;;;27.57;19.43
62789;BME280;66401;42.016;21.454;2023-02-19T11:26:24;98554.56;;;26.84;19.53
62789;BME280;66401;42.016;21.454;2023-02-19T11:28:56;98534.50;;;27.79;19.60
62789;BME280;66401;42.016;21.454;2023-02-19T11:31:27;98530.91;;;28.11;18.75
62789;BME280;66401;42.016;21.454;2023-02-19T11:34:14;98526.34;;;26.40;19.47
62789;BME280;66401;42.016;21.454;2023-02-19T11:37:27;98515.97;;;28.46;18.62
62789;BME280;66401;42.016;21.454;2023-02-19T11:39:52;98511.59;;;28.50;18.83
62789;BME280;66401;42.016;21.454;2023-02-19T11:42:44;98515.28;;;26.28;19.68
62789;BME280;66401;42.016;21.454;2023-02-19T11:53:24;98495.34;;;27.09;20.10
62789;BME280;66401;42.016;21.454;2023-02-19T11:56:13;98486.25;;;27.10;20.10
62789;BME280;66401;42.016;21.454;2023-02-19T11:59:11;98479.97;;;27.34;19.43
62789;BME280;66401;42.016;21.454;2023-02-19T12:02:17;98490.59;;;26.74;20.13
62789;BME280;66401;42.016;21.454;2023-02-19T12:13:22;98451.09;;;26.14;20.62
62789;BME280;66401;42.016;21.454;2023-02-19T12:16:12;98442.56;;;25.51;21.37
62789;BME280;66401;42.016;21.454;2023-02-19T12:21:58;98438.00;;;25.27;21.11
62789;BME280;66401;42.016;21.454;2023-02-19T12:38:54;98404.28;;;23.71;22.49
62789;BME280;66401;42.016;21.454;2023-02-19T12:44:17;98391.97;;;23.16;23.10
62789;BME280;66401;42.016;21.454;2023-02-19T12:46:48;98387.94;;;23.33;24.17
62789;BME280;66401;42.016;21.454;2023-02-19T12:51:49;98381.13;;;23.77;23.31
62789;BME280;66401;42.016;21.454;2023-02-19T12:54:26;98378.00;;;23.54;24.01
62789;BME280;66401;42.016;21.454;2023-02-19T12:57:24;98371.31;;;22.72;23.94
62789;BME280;66401;42.016;21.454;2023-02-19T12:59:59;98367.63;;;22.47;24.75
62789;BME280;66401;42.016;21.454;2023-02-19T13:02:30;98370.81;;;22.34;24.92
62789;BME280;66401;42.016;21.454;2023-02-19T13:07:39;98359.03;;;21.79;24.85
62789;BME280;66401;42.016;21.454;2023-02-19T13:12:41;98343.56;;;21.35;25.20
62789;BME280;66401;42.016;21.454;2023-02-19T13:15:15;98343.38;;;21.62;24.93
62789;BME280;66401;42.016;21.454;2023-02-19T13:17:44;98336.47;;;21.61;25.35
62789;BME280;66401;42.016;21.454;2023-02-19T13:20:26;98342.81;;;21.55;25.43
62789;BME280;66401;42.016;21.454;2023-02-19T13:28:43;98322.84;;;21.27;26.94
62789;BME280;66401;42.016;21.454;2023-02-19T13:36:28;98302.53;;;21.53;25.84
62789;BME280;66401;42.016;21.454;2023-02-19T13:38:55;98306.28;;;21.73;25.32
62789;BME280;66401;42.016;21.454;2023-02-19T13:41:31;98300.44;;;21.65;25.82
62789;BME280;66401;42.016;21.454;2023-02-19T13:44:03;98300.63;;;21.38;25.28
62789;BME280;66401;42.016;21.454;2023-02-19T13:46:37;98298.28;;;21.57;26.27
62789;BME280;66401;42.016;21.454;2023-02-19T13:52:00;98295.28;;;21.23;25.46
62789;BME280;66401;42.016;21.454;2023-02-19T13:54:34;98265.47;;;20.91;26.11
62789;BME280;66401;42.016;21.454;2023-02-19T13:59:57;98275.91;;;20.65;26.15
62789;BME280;66401;42.016;21.454;2023-02-19T14:02:28;98279.13;;;20.67;26.40
62789;BME280;66401;42.016;21.454;2023-02-19T14:07:51;98267.97;;;20.60;26.48
62789;BME280;66401;42.016;21.454;2023-02-19T14:19:02;98264.00;;;20.25;27.33
62789;BME280;66401;42.016;21.454;2023-02-19T14:21:39;98251.63;;;20.36;27.36
62789;BME280;66401;42.016;21.454;2023-02-19T14:24:10;98258.19;;;20.23;27.33
62789;BME280;66401;42.016;21.454;2023-02-19T14:26:36;98239.56;;;20.08;27.81
62789;BME280;66401;42.016;21.454;2023-02-19T14:29:06;98253.25;;;20.00;27.91
62789;BME280;66401;42.016;21.454;2023-02-19T14:31:35;98253.66;;;19.87;28.21
62789;BME280;66401;42.016;21.454;2023-02-19T14:34:21;98246.59;;;19.92;28.14
62789;BME280;66401;42.016;21.454;2023-02-19T14:36:57;98253.97;;;19.90;27.66
62789;BME280;66401;42.016;21.454;2023-02-19T14:39:32;98248.00;;;20.05;28.18
62789;BME280;66401;42.016;21.454;2023-02-19T14:42:02;98250.78;;;19.88;27.49
62789;BME280;66401;42.016;21.454;2023-02-19T14:44:54;98237.00;;;19.86;27.04
62789;BME280;66401;42.016;21.454;2023-02-19T14:47:23;98245.91;;;19.75;27.91
62789;BME280;66401;42.016;21.454;2023-02-19T14:52:28;98244.56;;;19.72;27.96
62789;BME280;66401;42.016;21.454;2023-02-19T14:57:28;98246.59;;;19.65;26.88
62789;BME280;66401;42.016;21.454;2023-02-19T14:59:59;98251.78;;;19.55;28.18